createdAt,value
2022-08-09T00:00:11.915Z,19.10
2022-08-09T00:02:42.859Z,19.10
2022-08-09T00:06:15.571Z,19.05
2022-08-09T00:08:04.538Z,19.03
2022-08-09T00:10:37.919Z,18.99
2022-08-09T00:13:12.922Z,19.01
2022-08-09T00:15:58.678Z,18.99
2022-08-09T00:18:29.399Z,18.93
2022-08-09T00:20:56.479Z,18.93
2022-08-09T00:23:57.958Z,18.91
2022-08-09T00:26:12.349Z,18.88
2022-08-09T00:28:41.267Z,18.86
2022-08-09T00:31:09.330Z,18.85
2022-08-09T00:33:55.719Z,18.81
2022-08-09T00:36:29.774Z,18.80
2022-08-09T00:38:58.768Z,18.79
2022-08-09T00:44:13.719Z,18.76
2022-08-09T00:44:25.381Z,18.75
2022-08-09T00:46:56.380Z,18.75
2022-08-09T00:49:28.741Z,18.73
2022-08-09T00:52:05.237Z,18.70
2022-08-09T00:54:36.009Z,18.67
2022-08-09T00:57:08.874Z,18.65
2022-08-09T00:59:41.185Z,18.62
2022-08-09T01:02:19.322Z,18.63
2022-08-09T01:05:14.103Z,18.62
2022-08-09T01:07:59.969Z,18.61
2022-08-09T01:10:37.158Z,18.59
2022-08-09T01:13:31.029Z,18.56
2022-08-09T01:16:12.965Z,18.50
2022-08-09T01:18:47.468Z,18.48
2022-08-09T01:21:41.287Z,18.47
2022-08-09T01:24:39.145Z,18.41
2022-08-09T01:27:09.644Z,18.34
2022-08-09T01:29:56.739Z,18.32
2022-08-09T01:32:45.361Z,18.27
2022-08-09T01:35:39.264Z,18.26
2022-08-09T01:38:26.458Z,18.22
2022-08-09T01:41:09.578Z,18.16
2022-08-09T01:43:52.029Z,18.10
2022-08-09T01:46:41.688Z,18.08
2022-08-09T01:49:15.735Z,18.08
2022-08-09T01:51:53.633Z,18.02
2022-08-09T01:54:32.929Z,17.98
2022-08-09T01:57:04.538Z,17.94
2022-08-09T01:59:32.929Z,17.93
2022-08-09T02:02:23.465Z,17.91
2022-08-09T02:05:04.187Z,17.90
2022-08-09T02:08:38.590Z,17.91
2022-08-09T02:10:29.932Z,17.90
2022-08-09T02:13:00.336Z,17.90
2022-08-09T02:15:36.260Z,17.90
2022-08-09T02:18:20.640Z,17.85
2022-08-09T02:20:55.393Z,17.79
2022-08-09T02:24:06.092Z,17.76
2022-08-09T02:26:36.348Z,17.74
2022-08-09T02:29:24.480Z,17.72
2022-08-09T02:31:59.496Z,17.70
2022-08-09T02:34:41.679Z,17.68
2022-08-09T02:37:22.569Z,17.67
2022-08-09T02:40:03.342Z,17.68
2022-08-09T02:42:43.433Z,17.69
2022-08-09T02:45:15.169Z,17.67
2022-08-09T02:47:57.266Z,17.61
2022-08-09T02:50:54.340Z,17.56
2022-08-09T02:53:31.884Z,17.57
2022-08-09T02:56:03.881Z,17.59
2022-08-09T02:58:37.473Z,17.60
2022-08-09T03:01:10.693Z,17.58
2022-08-09T03:04:17.351Z,17.56
2022-08-09T03:06:27.995Z,17.55
2022-08-09T03:08:57.630Z,17.56
2022-08-09T03:11:30.029Z,17.58
2022-08-09T03:14:15.977Z,17.57
2022-08-09T03:16:47.370Z,17.55
2022-08-09T03:19:58.557Z,17.52
2022-08-09T03:22:12.549Z,17.52
2022-08-09T03:25:05.818Z,17.48
2022-08-09T03:27:45.385Z,17.47
2022-08-09T03:30:14.569Z,17.45
2022-08-09T03:33:05.642Z,17.44
2022-08-09T03:35:44.397Z,17.40
2022-08-09T03:38:28.879Z,17.36
2022-08-09T03:40:56.360Z,17.32
2022-08-09T03:43:23.069Z,17.28
2022-08-09T03:46:05.282Z,17.24
2022-08-09T03:48:37.327Z,17.23
2022-08-09T03:51:54.081Z,17.20
2022-08-09T03:53:59.012Z,17.22
2022-08-09T03:56:26.727Z,17.19
2022-08-09T03:58:54.670Z,17.13
2022-08-09T04:01:24.799Z,17.10
2022-08-09T04:04:02.122Z,17.01
2022-08-09T04:06:32.175Z,16.96
2022-08-09T04:09:02.783Z,16.95
2022-08-09T04:12:11.837Z,16.94
2022-08-09T04:15:00.213Z,16.91
2022-08-09T04:17:29.529Z,16.92
2022-08-09T04:19:57.067Z,16.92
2022-08-09T04:22:23.977Z,16.91
2022-08-09T04:24:55.010Z,16.90
2022-08-09T04:27:22.269Z,16.90
2022-08-09T04:29:50.297Z,16.88
2022-08-09T04:32:31.309Z,16.85
2022-08-09T04:35:01.376Z,16.81
2022-08-09T04:37:45.120Z,16.80
2022-08-09T04:40:19.207Z,16.78
2022-08-09T04:42:56.800Z,16.78
2022-08-09T04:45:24.044Z,16.73
2022-08-09T04:47:58.845Z,16.71
2022-08-09T04:50:35.115Z,16.67
2022-08-09T04:53:13.657Z,16.64
2022-08-09T04:55:57.369Z,16.59
2022-08-09T04:58:27.628Z,16.58
2022-08-09T05:00:55.665Z,16.56
2022-08-09T05:03:41.034Z,16.57
2022-08-09T05:06:25.743Z,16.55
2022-08-09T05:09:00.300Z,16.51
2022-08-09T05:11:32.525Z,16.50
2022-08-09T05:14:05.831Z,16.49
2022-08-09T05:16:43.514Z,16.51
2022-08-09T05:19:10.406Z,16.51
2022-08-09T05:21:47.379Z,16.54
2022-08-09T05:24:24.186Z,16.53
2022-08-09T05:26:51.931Z,16.51
2022-08-09T05:29:24.103Z,16.52
2022-08-09T05:31:58.434Z,16.55
2022-08-09T05:34:31.724Z,16.55
2022-08-09T05:37:06.679Z,16.56
2022-08-09T05:39:43.153Z,16.62
2022-08-09T05:42:17.552Z,16.64
2022-08-09T05:44:50.957Z,16.64
2022-08-09T05:47:19.802Z,16.65
2022-08-09T05:50:31.296Z,16.66
2022-08-09T05:52:38.513Z,16.69
2022-08-09T05:55:07.223Z,16.67
2022-08-09T05:57:50.937Z,16.69
2022-08-09T06:00:23.544Z,16.71
2022-08-09T06:02:54.357Z,16.73
2022-08-09T06:05:31.148Z,16.74
2022-08-09T06:08:11.168Z,16.77
2022-08-09T06:10:38.527Z,16.77
2022-08-09T06:13:18.757Z,16.78
2022-08-09T06:15:51.443Z,16.82
2022-08-09T06:18:23.728Z,16.84
2022-08-09T06:20:56.926Z,16.86
2022-08-09T06:23:58.537Z,16.85
2022-08-09T06:26:13.619Z,16.91
2022-08-09T06:28:43.451Z,16.95
2022-08-09T06:31:11.120Z,16.99
2022-08-09T06:33:40.735Z,17.05
2022-08-09T06:36:11.886Z,17.06
2022-08-09T06:38:47.318Z,17.07
2022-08-09T06:41:19.173Z,17.13
2022-08-09T06:43:48.349Z,17.16
2022-08-09T06:46:40.402Z,17.18
2022-08-09T06:49:03.091Z,17.17
2022-08-09T06:51:30.212Z,17.20
2022-08-09T06:54:01.003Z,17.26
2022-08-09T06:56:30.714Z,17.30
2022-08-09T07:00:50.510Z,17.32
2022-08-09T07:01:54.470Z,17.37
2022-08-09T07:04:26.924Z,17.39
2022-08-09T07:07:00.677Z,17.43
2022-08-09T07:09:55.277Z,17.45
2022-08-09T07:12:18.140Z,17.42
2022-08-09T07:14:50.915Z,17.44
2022-08-09T07:17:20.204Z,17.47
2022-08-09T07:19:50.630Z,17.47
2022-08-09T07:22:18.407Z,17.42
2022-08-09T07:24:49.480Z,17.43
2022-08-09T07:27:26.356Z,17.41
2022-08-09T07:30:01.831Z,17.43
2022-08-09T07:32:32.563Z,17.48
2022-08-09T07:35:11.599Z,17.52
2022-08-09T07:37:45.630Z,17.55
2022-08-09T07:40:17.211Z,17.59
2022-08-09T07:42:54.461Z,17.63
2022-08-09T07:45:37.731Z,17.65
2022-08-09T07:48:25.359Z,17.72
2022-08-09T07:51:09.178Z,17.80
2022-08-09T07:54:04.507Z,17.88
2022-08-09T07:56:30.822Z,17.96
2022-08-09T07:58:59.430Z,18.03
2022-08-09T08:01:33.121Z,18.10
2022-08-09T08:04:04.744Z,18.18
2022-08-09T08:06:37.582Z,18.22
2022-08-09T08:09:35.487Z,18.26
2022-08-09T08:12:27.569Z,18.37
2022-08-09T08:14:55.095Z,18.48
2022-08-09T08:17:35.336Z,18.56
2022-08-09T08:20:12.567Z,18.63
2022-08-09T08:22:39.517Z,18.72
2022-08-09T08:25:13.123Z,18.82
2022-08-09T08:27:41.276Z,18.94
2022-08-09T08:30:11.731Z,19.06
2022-08-09T08:32:52.455Z,19.18
2022-08-09T08:35:22.462Z,19.33
2022-08-09T08:38:02.017Z,19.47
2022-08-09T08:40:33.579Z,19.61
2022-08-09T08:43:03.336Z,19.73
2022-08-09T08:45:59.610Z,19.93
2022-08-09T08:48:37.251Z,20.12
2022-08-09T08:51:04.479Z,20.33
2022-08-09T08:53:37.016Z,20.55
2022-08-09T08:56:06.902Z,20.72
2022-08-09T08:58:35.915Z,20.90
2022-08-09T09:01:08.611Z,21.06
2022-08-09T09:03:37.571Z,21.21
2022-08-09T09:06:07.316Z,21.33
2022-08-09T09:08:40.828Z,21.44
2022-08-09T09:11:13.877Z,21.59
2022-08-09T09:13:57.187Z,21.73
2022-08-09T09:16:32.428Z,21.86
2022-08-09T09:19:37.732Z,21.96
2022-08-09T09:22:12.526Z,22.04
2022-08-09T09:24:43.459Z,22.15
2022-08-09T09:27:22.054Z,22.28
2022-08-09T09:33:13.925Z,22.57
2022-08-09T09:36:02.242Z,22.72
2022-08-09T09:38:49.760Z,22.84
2022-08-09T09:41:49.359Z,23.02
2022-08-09T09:44:25.520Z,23.15
2022-08-09T09:47:09.765Z,23.27
2022-08-09T09:50:06.852Z,23.42
2022-08-09T09:52:36.276Z,23.63
2022-08-09T09:55:24.110Z,23.83
2022-08-09T09:58:15.729Z,23.98
2022-08-09T10:00:54.877Z,24.09
2022-08-09T10:03:57.687Z,24.21
2022-08-09T10:06:42.891Z,24.38
2022-08-09T10:09:22.503Z,24.48
2022-08-09T10:12:12.837Z,24.57
2022-08-09T10:14:51.621Z,24.71
2022-08-09T10:17:39.488Z,24.84
2022-08-09T10:20:32.657Z,24.99
2022-08-09T10:23:21.202Z,25.09
2022-08-09T10:26:04.848Z,25.21
2022-08-09T10:28:38.483Z,25.31
2022-08-09T10:34:08.174Z,25.46
2022-08-09T10:36:43.427Z,25.53
2022-08-09T10:39:15.893Z,25.57
2022-08-09T10:41:45.386Z,25.61
2022-08-09T10:44:12.575Z,25.67
2022-08-09T10:47:01.405Z,25.80
2022-08-09T10:49:54.285Z,25.86
2022-08-09T10:53:10.114Z,25.99
2022-08-09T10:55:57.962Z,26.04
2022-08-09T10:58:37.453Z,26.07
2022-08-09T11:03:15.768Z,26.12
2022-08-09T11:04:27.897Z,26.19
2022-08-09T11:07:01.555Z,26.30
2022-08-09T11:09:47.986Z,26.41
2022-08-09T11:12:17.417Z,26.41
2022-08-09T11:14:55.878Z,26.42
2022-08-09T11:17:24.585Z,26.55
2022-08-09T11:20:11.351Z,26.72
2022-08-09T11:22:47.302Z,26.95
2022-08-09T11:25:36.137Z,26.94
2022-08-09T11:28:33.805Z,26.75
2022-08-09T11:31:03.805Z,26.81
2022-08-09T11:33:50.367Z,26.89
2022-08-09T11:36:30.347Z,27.04
2022-08-09T11:39:03.637Z,27.36
2022-08-09T11:41:37.836Z,27.67
2022-08-09T11:44:08.223Z,27.88
2022-08-09T11:46:54.887Z,28.25
2022-08-09T11:50:54.842Z,28.61
2022-08-09T11:53:16.642Z,29.15
2022-08-09T11:55:53.494Z,29.46
2022-08-09T11:58:33.726Z,29.94
2022-08-09T12:01:37.361Z,30.49
2022-08-09T12:04:01.048Z,31.12
2022-08-09T12:06:32.541Z,31.61
2022-08-09T12:09:05.203Z,31.66
2022-08-09T12:11:37.927Z,31.48
2022-08-09T12:14:41.062Z,31.44
2022-08-09T12:17:27.531Z,31.78
2022-08-09T12:19:59.562Z,32.34
2022-08-09T12:22:29.193Z,32.79
2022-08-09T12:25:16.408Z,33.27
2022-08-09T12:29:15.614Z,33.64
2022-08-09T12:30:36.628Z,33.97
2022-08-09T12:33:05.731Z,34.28
2022-08-09T12:35:41.083Z,34.43
2022-08-09T12:38:37.459Z,34.60
2022-08-09T12:41:07.318Z,34.79
2022-08-09T12:44:06.625Z,35.15
2022-08-09T12:46:24.360Z,35.34
2022-08-09T12:48:55.609Z,35.63
2022-08-09T12:51:52.828Z,36.04
2022-08-09T12:54:10.597Z,36.28
2022-08-09T12:56:55.374Z,36.24
2022-08-09T12:59:24.407Z,36.29
2022-08-09T13:02:09.393Z,36.17
2022-08-09T13:04:38.720Z,36.04
2022-08-09T13:07:13.784Z,36.15
2022-08-09T13:09:52.762Z,36.46
2022-08-09T13:12:22.876Z,36.47
2022-08-09T13:14:53.799Z,36.77
2022-08-09T13:17:44.374Z,36.70
2022-08-09T13:20:14.264Z,37.13
2022-08-09T13:23:05.185Z,37.26
2022-08-09T13:25:42.871Z,37.39
2022-08-09T13:28:19.038Z,37.71
2022-08-09T13:32:17.771Z,37.74
2022-08-09T13:33:55.036Z,38.23
2022-08-09T13:36:24.760Z,38.66
2022-08-09T13:41:17.422Z,38.44
2022-08-09T13:42:05.061Z,38.44
2022-08-09T13:44:33.471Z,39.14
2022-08-09T13:47:27.765Z,39.70
2022-08-09T13:49:57.265Z,39.98
2022-08-09T13:52:28.532Z,40.03
2022-08-09T13:54:59.127Z,40.09
2022-08-09T13:57:35.645Z,40.56
2022-08-09T14:00:16.726Z,40.52
2022-08-09T14:03:04.609Z,40.89
2022-08-09T14:05:56.554Z,41.06
2022-08-09T14:08:21.613Z,40.96
2022-08-09T14:10:50.326Z,41.05
2022-08-09T14:13:28.126Z,41.06
2022-08-09T14:16:09.895Z,41.75
2022-08-09T14:18:38.691Z,42.02
2022-08-09T14:21:11.324Z,42.23
2022-08-09T14:23:40.723Z,42.77
2022-08-09T14:26:25.275Z,42.80
2022-08-09T14:28:52.353Z,42.92
2022-08-09T14:31:19.314Z,43.42
2022-08-09T14:33:52.124Z,43.60
2022-08-09T14:36:21.634Z,43.55
2022-08-09T14:38:52.943Z,43.41
2022-08-09T14:41:34.540Z,43.61
2022-08-09T14:44:11.412Z,43.38
2022-08-09T14:47:03.190Z,43.49
2022-08-09T14:49:26.868Z,44.11
2022-08-09T14:51:58.439Z,44.34
2022-08-09T14:54:27.687Z,43.98
2022-08-09T14:56:58.866Z,43.68
2022-08-09T14:59:28.422Z,43.57
2022-08-09T15:01:56.081Z,43.76
2022-08-09T15:04:23.705Z,43.75
2022-08-09T15:06:51.673Z,43.44
2022-08-09T15:10:03.516Z,43.15
2022-08-09T15:12:07.766Z,43.24
2022-08-09T15:14:38.531Z,43.26
2022-08-09T15:17:11.325Z,42.93
2022-08-09T15:19:54.617Z,43.15
2022-08-09T15:22:26.170Z,43.08
2022-08-09T15:24:54.285Z,43.90
2022-08-09T15:27:21.405Z,44.45
2022-08-09T15:30:58.430Z,44.35
2022-08-09T15:32:36.844Z,44.53
2022-08-09T15:35:18.277Z,44.58
2022-08-09T15:37:56.844Z,44.65
2022-08-09T15:40:43.943Z,44.50
2022-08-09T15:43:13.629Z,44.65
2022-08-09T15:46:07.311Z,44.68
2022-08-09T15:48:30.609Z,44.71
2022-08-09T15:51:00.021Z,44.83
2022-08-09T15:54:08.159Z,44.62
2022-08-09T15:56:29.232Z,44.61
2022-08-09T15:59:00.923Z,44.67
2022-08-09T16:01:31.402Z,44.23
2022-08-09T16:04:02.094Z,44.64
2022-08-09T16:06:35.435Z,44.67
2022-08-09T16:09:06.105Z,44.41
2022-08-09T16:11:33.810Z,44.43
2022-08-09T16:14:06.471Z,44.45
2022-08-09T16:16:42.055Z,44.16
2022-08-09T16:19:13.800Z,44.39
2022-08-09T16:21:42.199Z,44.13
2022-08-09T16:24:29.824Z,44.52
2022-08-09T16:27:01.174Z,44.72
2022-08-09T16:29:37.623Z,44.65
2022-08-09T16:32:19.002Z,45.04
2022-08-09T16:34:56.470Z,44.86
2022-08-09T16:37:55.932Z,44.98
2022-08-09T16:40:13.984Z,44.87
2022-08-09T16:42:47.903Z,44.66
2022-08-09T16:45:19.871Z,44.37
2022-08-09T16:48:38.671Z,43.63
2022-08-09T16:50:34.840Z,43.97
2022-08-09T16:53:05.883Z,43.90
2022-08-09T16:56:00.241Z,44.18
2022-08-09T16:58:20.923Z,44.52
2022-08-09T17:00:48.684Z,44.37
2022-08-09T17:03:20.913Z,44.21
2022-08-09T17:06:06.973Z,44.35
2022-08-09T17:08:45.939Z,43.89
2022-08-09T17:11:24.410Z,43.72
2022-08-09T17:14:01.090Z,43.73
2022-08-09T17:16:29.229Z,43.62
2022-08-09T17:18:56.709Z,43.39
2022-08-09T17:21:25.134Z,43.12
2022-08-09T17:24:27.139Z,42.92
2022-08-09T17:26:47.706Z,43.29
2022-08-09T17:29:20.422Z,43.03
2022-08-09T17:31:49.319Z,43.07
2022-08-09T17:35:00.961Z,42.45
2022-08-09T17:37:04.146Z,42.07
2022-08-09T17:39:52.972Z,41.88
2022-08-09T17:42:42.188Z,41.66
2022-08-09T17:45:06.573Z,41.26
2022-08-09T17:47:49.771Z,40.49
2022-08-09T17:50:36.502Z,39.70
2022-08-09T17:53:10.449Z,38.77
2022-08-09T17:55:48.816Z,36.85
2022-08-09T17:58:19.234Z,34.19
2022-08-09T18:00:48.038Z,32.28
2022-08-09T18:03:17.589Z,30.79
2022-08-09T18:05:45.291Z,29.75
2022-08-09T18:08:21.889Z,29.06
2022-08-09T18:11:00.776Z,28.51
2022-08-09T18:13:43.095Z,28.13
2022-08-09T18:16:16.955Z,27.73
2022-08-09T18:18:56.581Z,27.54
2022-08-09T18:21:24.507Z,27.28
2022-08-09T18:24:09.734Z,27.11
2022-08-09T18:26:46.205Z,26.91
2022-08-09T18:30:39.958Z,26.71
2022-08-09T18:32:03.093Z,26.52
2022-08-09T18:34:32.733Z,26.38
2022-08-09T18:36:59.445Z,26.24
2022-08-09T18:39:32.161Z,26.11
2022-08-09T18:42:01.191Z,25.98
2022-08-09T18:44:28.159Z,25.86
2022-08-09T18:47:08.252Z,25.76
2022-08-09T18:49:43.573Z,25.65
2022-08-09T18:52:15.815Z,25.56
2022-08-09T18:54:52.493Z,25.48
2022-08-09T18:57:22.227Z,25.42
2022-08-09T18:59:55.469Z,25.40
2022-08-09T19:02:31.829Z,25.33
2022-08-09T19:05:14.215Z,25.25
2022-08-09T19:07:51.529Z,25.16
2022-08-09T19:10:36.985Z,25.03
2022-08-09T19:13:20.919Z,24.84
2022-08-09T19:15:55.547Z,24.71
2022-08-09T19:18:37.440Z,24.56
2022-08-09T19:21:09.651Z,24.48
2022-08-09T19:24:39.577Z,24.40
2022-08-09T19:26:31.069Z,24.35
2022-08-09T19:29:15.128Z,24.31
2022-08-09T19:31:46.357Z,24.28
2022-08-09T19:34:22.136Z,24.16
2022-08-09T19:36:55.859Z,24.07
2022-08-09T19:39:28.907Z,24.00
2022-08-09T19:42:14.622Z,23.91
2022-08-09T19:44:43.029Z,23.88
2022-08-09T19:47:11.122Z,23.82
2022-08-09T19:50:07.060Z,23.77
2022-08-09T19:52:27.211Z,23.67
2022-08-09T19:54:55.381Z,23.58
2022-08-09T19:57:25.809Z,23.55
2022-08-09T20:00:07.044Z,23.53
2022-08-09T20:04:12.726Z,23.44
2022-08-09T20:05:23.604Z,23.37
2022-08-09T20:07:57.031Z,23.33
2022-08-09T20:10:36.543Z,23.25
2022-08-09T20:13:06.180Z,23.18
2022-08-09T20:16:37.682Z,23.12
2022-08-09T20:18:22.403Z,23.08
2022-08-09T20:20:51.214Z,23.04
2022-08-09T20:23:21.067Z,22.96
2022-08-09T20:25:51.962Z,22.93
2022-08-09T20:28:27.483Z,22.91
2022-08-09T20:31:04.532Z,22.86
2022-08-09T20:33:39.048Z,22.82
2022-08-09T20:36:08.832Z,22.79
2022-08-09T20:39:02.642Z,22.72
2022-08-09T20:41:34.721Z,22.63
2022-08-09T20:44:09.800Z,22.58
2022-08-09T20:46:42.782Z,22.52
2022-08-09T20:49:15.800Z,22.50
2022-08-09T20:51:43.530Z,22.45
2022-08-09T20:54:16.654Z,22.42
2022-08-09T20:56:46.667Z,22.35
2022-08-09T20:59:17.219Z,22.29
2022-08-09T21:01:51.230Z,22.23
2022-08-09T21:05:51.900Z,22.18
2022-08-09T21:07:11.770Z,22.11
2022-08-09T21:09:56.769Z,22.03
2022-08-09T21:15:23.788Z,21.88
2022-08-09T21:18:23.587Z,21.82
2022-08-09T21:20:50.272Z,21.74
2022-08-09T21:23:21.555Z,21.66
2022-08-09T21:25:59.511Z,21.61
2022-08-09T21:28:36.134Z,21.57
2022-08-09T21:31:16.355Z,21.54
2022-08-09T21:33:52.523Z,21.46
2022-08-09T21:36:27.823Z,21.40
2022-08-09T21:38:57.751Z,21.43
2022-08-09T21:42:05.478Z,21.39
2022-08-09T21:44:33.814Z,21.33
2022-08-09T21:47:07.578Z,21.28
2022-08-09T21:49:40.633Z,21.24
2022-08-09T21:52:17.019Z,21.17
2022-08-09T21:55:03.196Z,21.13
2022-08-09T21:57:39.459Z,21.07
2022-08-09T22:00:32.558Z,21.07
2022-08-09T22:03:04.610Z,21.09
2022-08-09T22:05:36.109Z,21.06
2022-08-09T22:08:13.674Z,21.04
2022-08-09T22:11:00.254Z,21.05
2022-08-09T22:13:33.909Z,21.04
2022-08-09T22:16:01.319Z,20.98
2022-08-09T22:18:30.862Z,20.94
2022-08-09T22:21:00.002Z,20.95
2022-08-09T22:23:35.571Z,20.95
2022-08-09T22:26:34.310Z,20.94
2022-08-09T22:29:06.929Z,20.86
2022-08-09T22:31:36.068Z,20.86
2022-08-09T22:34:03.518Z,20.87
2022-08-09T22:36:37.338Z,20.86
2022-08-09T22:39:46.875Z,20.86
2022-08-09T22:42:01.673Z,20.86
2022-08-09T22:44:32.644Z,20.74
2022-08-09T22:48:15.227Z,20.64
2022-08-09T22:49:47.300Z,20.56
2022-08-09T22:52:18.752Z,20.53
2022-08-09T22:54:47.443Z,20.48
2022-08-09T22:57:14.845Z,20.48
2022-08-09T22:59:57.101Z,20.46
2022-08-09T23:02:25.460Z,20.47
2022-08-09T23:04:54.678Z,20.49
2022-08-09T23:08:21.750Z,20.52
2022-08-09T23:10:32.307Z,20.52
2022-08-09T23:12:59.921Z,20.54
2022-08-09T23:15:28.682Z,20.52
2022-08-09T23:17:56.018Z,20.46
2022-08-09T23:20:24.177Z,20.52
2022-08-09T23:22:51.060Z,20.52
2022-08-09T23:25:17.826Z,20.48
2022-08-09T23:28:09.504Z,20.41
2022-08-09T23:30:31.602Z,20.37
2022-08-09T23:32:58.558Z,20.36
2022-08-09T23:35:25.275Z,20.30
2022-08-09T23:37:52.144Z,20.25
2022-08-09T23:40:19.229Z,20.25
2022-08-09T23:42:46.050Z,20.13
2022-08-09T23:45:37.864Z,20.12
2022-08-09T23:47:59.807Z,20.12
2022-08-09T23:50:26.707Z,20.14
2022-08-09T23:52:53.792Z,20.18
2022-08-09T23:55:21.397Z,20.21
2022-08-09T23:58:10.663Z,20.21
